Time;durP1;ratioP1;P1;durP2;ratioP2;P2;SDS_P1;SDS_P2;PMS_P1;PMS_P2;Temp;Humidity;BMP_temperature;BMP_pressure;BME280_temperature;BME280_humidity;BME280_pressure;Samples;Min_cycle;Max_cycle;Signal;HPM_P1;HPM_P2
2023/01/03 00:01:49;;;;;;;5.97;3.58;;;10.10;79.40;;;;;;5022862;28;20049;-51
2023/01/03 00:04:19;;;;;;;7.80;3.67;;;10.10;79.40;;;;;;5037941;28;20425;-52
2023/01/03 00:06:49;;;;;;;5.32;3.33;;;10.10;80.00;;;;;;5043107;28;20657;-50
2023/01/03 00:09:21;;;;;;;4.95;3.50;;;10.00;79.40;;;;;;5040515;28;20041;-51
2023/01/03 00:14:40;;;;;;;4.65;3.13;;;10.00;79.50;;;;;;5049046;28;20136;-51
2023/01/03 00:17:10;;;;;;;7.63;3.60;;;9.90;79.50;;;;;;5048711;28;20052;-51
2023/01/03 00:19:40;;;;;;;4.95;3.80;;;9.90;79.50;;;;;;5029463;28;20029;-49
2023/01/03 00:22:11;;;;;;;6.32;3.30;;;9.90;79.50;;;;;;5039348;28;20086;-51
2023/01/03 00:24:41;;;;;;;4.00;3.50;;;9.90;79.50;;;;;;5047565;28;20467;-52
2023/01/03 00:27:11;;;;;;;3.53;3.17;;;9.80;79.50;;;;;;5048432;28;20102;-53
2023/01/03 00:29:40;;;;;;;4.93;3.38;;;9.80;79.50;;;;;;5032368;28;20132;-51
2023/01/03 00:32:10;;;;;;;6.88;3.45;;;9.80;79.50;;;;;;5047777;28;20410;-51
2023/01/03 00:34:42;;;;;;;7.45;4.07;;;9.80;79.50;;;;;;5047571;28;20051;-51
2023/01/03 00:37:11;;;;;;;3.92;3.38;;;9.70;79.50;;;;;;5034544;28;20045;-52
2023/01/03 00:39:38;;;;;;;4.82;3.45;;;9.70;79.50;;;;;;5029061;28;20060;-52
2023/01/03 00:42:07;;;;;;;5.65;3.40;;;9.70;79.50;;;;;;5042802;28;20041;-51
2023/01/03 00:44:39;;;;;;;5.53;4.07;;;9.70;79.50;;;;;;5047947;28;20580;-50
2023/01/03 00:47:09;;;;;;;4.97;3.40;;;9.60;79.40;;;;;;5045224;28;20124;-50
2023/01/03 00:49:39;;;;;;;4.57;3.42;;;9.60;79.50;;;;;;5032366;28;20040;-53
2023/01/03 00:52:08;;;;;;;5.68;3.90;;;9.60;79.50;;;;;;5048072;28;20067;-50
2023/01/03 00:54:37;;;;;;;5.85;3.50;;;9.60;79.50;;;;;;5047638;28;20132;-52
2023/01/03 00:57:04;;;;;;;6.38;3.88;;;9.50;79.50;;;;;;5023017;28;20034;-51
2023/01/03 00:59:33;;;;;;;6.97;3.90;;;9.50;79.50;;;;;;5031021;28;20117;-51
2023/01/03 01:02:03;;;;;;;7.97;4.35;;;9.50;79.50;;;;;;5047772;28;20067;-50
2023/01/03 01:04:35;;;;;;;4.72;4.07;;;9.50;79.50;;;;;;5051514;28;20056;-51
2023/01/03 01:07:03;;;;;;;5.85;3.70;;;9.40;80.00;;;;;;5031307;28;20038;-49
2023/01/03 01:09:35;;;;;;;7.47;3.42;;;9.50;79.50;;;;;;5045929;28;20436;-51
2023/01/03 01:12:03;;;;;;;6.13;4.57;;;9.40;79.40;;;;;;5045237;28;20065;-51
2023/01/03 01:14:32;;;;;;;9.10;4.50;;;9.40;79.30;;;;;;5050262;28;20286;-50
2023/01/03 01:17:08;;;;;;;7.72;4.47;;;9.40;79.30;;;;;;5027074;28;20083;-50
2023/01/03 01:19:38;;;;;;;6.78;4.65;;;9.40;79.40;;;;;;5042837;28;20565;-49
2023/01/03 01:22:08;;;;;;;5.50;4.38;;;9.30;80.00;;;;;;5051315;28;20507;-50
2023/01/03 01:24:37;;;;;;;7.30;4.25;;;9.30;79.30;;;;;;5044372;28;20072;-49
2023/01/03 01:27:06;;;;;;;6.22;3.97;;;9.20;79.20;;;;;;5041820;28;20098;-52
2023/01/03 01:29:38;;;;;;;7.38;4.35;;;9.30;79.20;;;;;;5050723;28;20531;-49
2023/01/03 01:32:11;;;;;;;7.22;3.90;;;9.20;79.20;;;;;;5051223;28;20052;-50
2023/01/03 01:34:38;;;;;;;7.10;4.63;;;9.20;79.10;;;;;;5032082;28;20045;-50
2023/01/03 01:37:08;;;;;;;9.45;4.40;;;9.20;79.10;;;;;;5040214;28;20048;-49
2023/01/03 01:39:37;;;;;;;5.82;4.47;;;9.10;79.10;;;;;;5050579;28;20051;-50
2023/01/03 01:45:00;;;;;;;6.90;4.35;;;9.10;79.30;;;;;;5031696;28;20116;-51
2023/01/03 01:47:45;;;;;;;6.10;4.15;;;9.10;79.20;;;;;;5048854;28;20094;-53
2023/01/03 01:50:47;;;;;;;5.28;4.10;;;9.00;79.00;;;;;;5051392;28;20104;-51
2023/01/03 01:53:39;;;;;;;7.05;4.30;;;9.00;79.00;;;;;;5020192;28;20426;-51
2023/01/03 01:56:18;;;;;;;4.05;3.45;;;9.00;78.80;;;;;;5040136;28;20558;-52
2023/01/03 01:58:49;;;;;;;6.50;3.75;;;8.90;78.50;;;;;;5049609;28;20120;-50
2023/01/03 02:01:20;;;;;;;4.25;3.63;;;8.90;78.40;;;;;;5044846;28;20037;-52
2023/01/03 02:04:00;;;;;;;9.88;4.10;;;8.80;78.30;;;;;;5022441;28;20048;-51
2023/01/03 02:06:29;;;;;;;7.25;3.63;;;8.70;78.20;;;;;;5039985;28;20079;-51
2023/01/03 02:08:59;;;;;;;4.82;3.90;;;8.70;78.30;;;;;;5051563;28;20528;-52
2023/01/03 02:11:39;;;;;;;6.72;4.28;;;8.60;78.80;;;;;;5040896;28;20580;-51
2023/01/03 02:14:48;;;;;;;5.03;4.18;;;8.60;78.30;;;;;;5027130;28;20136;-51
2023/01/03 02:17:29;;;;;;;6.07;4.70;;;8.50;78.30;;;;;;5026214;28;20052;-50
2023/01/03 02:20:39;;;;;;;6.35;4.90;;;8.50;78.40;;;;;;5026175;28;20041;-53
2023/01/03 02:23:24;;;;;;;8.90;3.80;;;8.50;78.50;;;;;;5019688;28;20081;-50
2023/01/03 02:26:30;;;;;;;6.00;4.28;;;8.40;78.40;;;;;;5027169;28;20069;-51
2023/01/03 02:29:36;;;;;;;14.05;4.82;;;8.40;78.40;;;;;;5026484;28;20136;-51
2023/01/03 02:32:38;;;;;;;7.63;4.93;;;8.30;78.30;;;;;;5022310;28;20068;-51
2023/01/03 02:35:22;;;;;;;6.82;4.45;;;8.30;78.20;;;;;;5039406;28;20040;-53
2023/01/03 02:38:13;;;;;;;6.50;4.30;;;8.20;78.10;;;;;;5050416;28;20068;-52
2023/01/03 02:40:43;;;;;;;5.03;4.25;;;8.10;77.90;;;;;;5042418;28;20618;-50
2023/01/03 02:43:13;;;;;;;6.60;4.70;;;8.10;78.00;;;;;;5042419;28;20049;-50
2023/01/03 02:46:07;;;;;;;5.43;4.70;;;8.10;78.00;;;;;;5049845;28;20069;-50
2023/01/03 02:48:45;;;;;;;7.03;4.80;;;8.00;78.00;;;;;;5050811;28;20040;-51
2023/01/03 02:51:36;;;;;;;9.90;4.82;;;7.90;78.00;;;;;;5033635;28;20091;-50
2023/01/03 02:54:08;;;;;;;6.00;4.28;;;7.90;78.70;;;;;;5049382;28;20036;-51
2023/01/03 02:56:41;;;;;;;6.90;4.00;;;7.80;78.00;;;;;;5049140;28;20459;-51
2023/01/03 02:59:14;;;;;;;7.40;3.67;;;7.80;78.10;;;;;;5036064;28;20060;-51
2023/01/03 03:01:49;;;;;;;4.90;3.65;;;7.70;78.10;;;;;;5044365;28;20053;-52
2023/01/03 03:04:18;;;;;;;6.35;4.68;;;7.70;78.10;;;;;;5050904;28;20048;-51
2023/01/03 03:06:56;;;;;;;7.82;4.55;;;7.70;78.20;;;;;;5041500;28;20043;-50
2023/01/03 03:09:25;;;;;;;4.90;4.10;;;7.60;78.20;;;;;;5025230;28;20100;-52
2023/01/03 03:14:50;;;;;;;7.95;4.88;;;7.60;78.30;;;;;;5050438;28;20068;-50
2023/01/03 03:17:23;;;;;;;6.47;4.53;;;7.50;78.20;;;;;;5033131;28;20045;-50
2023/01/03 03:25:49;;;;;;;5.00;3.95;;;7.50;78.30;;;;;;5041558;28;20061;-50
2023/01/03 03:28:36;;;;;;;6.20;4.20;;;7.50;78.30;;;;;;5022211;28;20103;-50
2023/01/03 03:31:03;;;;;;;6.80;4.60;;;7.40;78.40;;;;;;5036664;28;20106;-51
2023/01/03 03:33:33;;;;;;;8.30;4.72;;;7.40;78.40;;;;;;5048007;28;20045;-53
2023/01/03 03:36:25;;;;;;;6.90;4.63;;;7.40;78.50;;;;;;5034308;28;20120;-50
2023/01/03 03:38:51;;;;;;;7.25;4.70;;;7.40;78.60;;;;;;5037253;28;20480;-51
2023/01/03 03:47:30;;;;;;;7.72;4.43;;;7.30;78.70;;;;;;5030744;28;20395;-55
2023/01/03 03:50:07;;;;;;;8.40;4.50;;;7.30;78.80;;;;;;5035006;28;20040;-55
2023/01/03 03:52:41;;;;;;;5.00;4.40;;;7.30;78.80;;;;;;5049222;28;20086;-55
2023/01/03 03:55:20;;;;;;;6.82;4.80;;;7.30;78.90;;;;;;5045488;28;20120;-53
2023/01/03 03:57:57;;;;;;;6.40;4.53;;;7.30;78.80;;;;;;5036644;28;20040;-54
2023/01/03 04:00:29;;;;;;;6.53;4.05;;;7.30;78.80;;;;;;5038817;28;20049;-54
2023/01/03 04:03:00;;;;;;;7.20;4.50;;;7.30;78.90;;;;;;5044879;28;20132;-53
2023/01/03 04:05:33;;;;;;;7.80;4.80;;;7.30;79.10;;;;;;5024907;28;20029;-55
2023/01/03 04:08:02;;;;;;;6.80;3.85;;;7.30;79.20;;;;;;5045083;28;20143;-51
2023/01/03 04:10:29;;;;;;;6.03;4.68;;;7.30;79.40;;;;;;5049218;28;20124;-54
2023/01/03 04:13:05;;;;;;;6.05;5.00;;;7.30;79.60;;;;;;5040684;28;20037;-50
2023/01/03 04:15:48;;;;;;;7.38;4.60;;;7.40;79.90;;;;;;5032882;28;20132;-54
2023/01/03 04:18:17;;;;;;;6.30;5.00;;;7.40;79.90;;;;;;5049621;28;20382;-54
2023/01/03 04:20:45;;;;;;;7.20;4.93;;;7.50;80.00;;;;;;5041010;28;20072;-54
2023/01/03 04:23:14;;;;;;;10.90;5.50;;;7.50;80.00;;;;;;5026974;28;20116;-52
2023/01/03 04:25:47;;;;;;;8.55;5.13;;;7.50;80.00;;;;;;5034063;28;20080;-51
2023/01/03 04:28:18;;;;;;;7.68;4.93;;;7.60;80.10;;;;;;5048443;28;20044;-55
2023/01/03 04:30:45;;;;;;;8.45;4.97;;;7.60;80.10;;;;;;5043885;28;20050;-50
2023/01/03 04:33:16;;;;;;;8.27;5.28;;;7.60;80.10;;;;;;5039076;28;20037;-50
2023/01/03 04:35:43;;;;;;;8.73;5.22;;;7.70;80.10;;;;;;5040111;28;20088;-52
2023/01/03 04:38:10;;;;;;;9.07;5.20;;;7.70;80.10;;;;;;5052186;28;20041;-53
2023/01/03 04:40:39;;;;;;;8.48;5.03;;;7.70;80.10;;;;;;5047033;28;20045;-55
2023/01/03 04:45:52;;;;;;;6.30;4.63;;;7.80;80.10;;;;;;5045393;28;20115;-51
2023/01/03 04:48:30;;;;;;;7.43;5.45;;;7.80;80.00;;;;;;5030582;28;20045;-54
2023/01/03 04:50:58;;;;;;;7.78;4.93;;;7.80;80.00;;;;;;5043756;28;20404;-50
2023/01/03 04:53:26;;;;;;;8.43;5.10;;;7.80;79.90;;;;;;5052559;28;20045;-53
2023/01/03 04:55:58;;;;;;;7.00;4.32;;;7.80;79.80;;;;;;5051061;28;20087;-51
2023/01/03 04:58:26;;;;;;;7.35;4.22;;;7.90;79.80;;;;;;5029981;28;20047;-54
2023/01/03 05:01:06;;;;;;;7.72;5.07;;;7.90;79.70;;;;;;5050179;22;20120;-49
2023/01/03 05:03:36;;;;;;;6.15;4.70;;;7.90;79.60;;;;;;5030356;28;20069;-52
2023/01/03 05:06:06;;;;;;;16.63;5.07;;;7.90;79.50;;;;;;5032650;28;20037;-49
2023/01/03 05:08:33;;;;;;;5.50;4.78;;;7.90;79.40;;;;;;5014499;28;20608;-52
2023/01/03 05:11:02;;;;;;;5.55;4.55;;;7.80;79.30;;;;;;5030774;28;20530;-46
2023/01/03 05:13:30;;;;;;;6.82;4.40;;;7.80;79.30;;;;;;5049691;28;20044;-47
2023/01/03 05:16:06;;;;;;;6.00;4.28;;;7.80;79.30;;;;;;5049810;28;20061;-47
2023/01/03 05:18:33;;;;;;;5.38;4.50;;;7.80;79.30;;;;;;5047347;28;20072;-48
2023/01/03 05:26:49;;;;;;;5.93;4.63;;;7.80;79.00;;;;;;5050932;28;20083;-51
2023/01/03 05:29:18;;;;;;;5.68;5.07;;;7.70;79.00;;;;;;5045976;28;20045;-49
2023/01/03 05:31:45;;;;;;;7.03;5.07;;;7.70;79.10;;;;;;5050568;28;20496;-52
2023/01/03 05:34:12;;;;;;;5.78;4.25;;;7.70;79.40;;;;;;5052191;28;20047;-48
2023/01/03 05:36:40;;;;;;;6.47;4.85;;;7.70;79.60;;;;;;5050691;28;20041;-51
2023/01/03 05:39:06;;;;;;;8.98;4.97;;;7.70;79.90;;;;;;5046355;28;20029;-52
2023/01/03 05:44:21;;;;;;;6.15;4.28;;;7.70;80.20;;;;;;5045142;28;20037;-48
2023/01/03 05:46:47;;;;;;;4.68;4.22;;;7.70;80.80;;;;;;5045195;28;20556;-50
2023/01/03 05:49:14;;;;;;;5.88;4.95;;;7.70;80.10;;;;;;5047281;28;20048;-50
2023/01/03 05:51:41;;;;;;;8.80;5.20;;;7.80;80.30;;;;;;5041805;28;20128;-52
2023/01/03 05:54:12;;;;;;;5.95;5.07;;;7.80;80.40;;;;;;5041707;28;20051;-50
2023/01/03 05:56:39;;;;;;;9.07;4.68;;;7.80;80.50;;;;;;5047649;28;20132;-49
2023/01/03 05:59:06;;;;;;;6.88;4.32;;;7.80;80.60;;;;;;5046235;28;20045;-53
2023/01/03 06:01:33;;;;;;;6.68;5.22;;;7.90;80.70;;;;;;5049964;28;20045;-49
2023/01/03 06:04:00;;;;;;;6.90;5.25;;;7.90;80.80;;;;;;5043973;28;20083;-53
2023/01/03 06:06:27;;;;;;;8.10;5.57;;;7.90;80.90;;;;;;5049123;28;20567;-53
2023/01/03 06:08:56;;;;;;;6.85;5.40;;;8.00;80.90;;;;;;5046270;28;20060;-52
2023/01/03 06:11:22;;;;;;;7.47;4.97;;;8.00;80.90;;;;;;5049473;28;20058;-49
2023/01/03 06:13:49;;;;;;;8.68;5.38;;;8.00;80.90;;;;;;5029907;28;20489;-49
2023/01/03 06:19:05;;;;;;;8.50;6.03;;;8.10;81.00;;;;;;5041519;28;20131;-50
2023/01/03 06:21:33;;;;;;;8.75;6.15;;;8.20;81.00;;;;;;5049688;28;20049;-47
2023/01/03 06:24:00;;;;;;;8.13;5.28;;;8.20;80.90;;;;;;5049270;28;20048;-52
2023/01/03 06:26:26;;;;;;;7.90;5.88;;;8.30;81.00;;;;;;5044343;28;20041;-50
2023/01/03 06:28:53;;;;;;;7.30;5.57;;;8.30;81.00;;;;;;5045836;28;20093;-48
2023/01/03 06:31:20;;;;;;;7.22;5.95;;;8.30;80.90;;;;;;5040389;28;20101;-52
2023/01/03 06:33:47;;;;;;;6.85;5.20;;;8.30;80.90;;;;;;5043455;28;20123;-48
2023/01/03 06:36:17;;;;;;;6.90;5.18;;;8.30;80.90;;;;;;5046524;28;20669;-53
2023/01/03 06:38:44;;;;;;;6.50;5.05;;;8.40;80.90;;;;;;5043736;28;20048;-51
2023/01/03 06:41:12;;;;;;;8.05;5.60;;;8.40;80.90;;;;;;5048005;28;20560;-51
2023/01/03 06:43:41;;;;;;;6.88;5.03;;;8.50;80.70;;;;;;5048690;28;20136;-51
2023/01/03 06:54:34;;;;;;;6.32;4.63;;;8.50;80.40;;;;;;5044043;28;20103;-53
2023/01/03 06:57:03;;;;;;;8.82;5.13;;;8.50;80.40;;;;;;5038658;28;20065;-52
2023/01/03 06:59:29;;;;;;;5.20;4.70;;;8.60;80.60;;;;;;5048257;28;20037;-49
2023/01/03 07:01:56;;;;;;;5.47;4.90;;;8.60;80.40;;;;;;5048666;28;20049;-53
2023/01/03 07:04:24;;;;;;;7.57;5.43;;;8.50;80.10;;;;;;5049317;28;20049;-53
2023/01/03 07:06:52;;;;;;;5.53;4.60;;;8.50;80.00;;;;;;5045708;28;20049;-48
2023/01/03 07:09:18;;;;;;;5.18;4.40;;;8.50;79.80;;;;;;5044032;28;20053;-53
2023/01/03 07:11:45;;;;;;;5.85;4.50;;;8.60;79.70;;;;;;5045174;28;20068;-51
2023/01/03 07:14:12;;;;;;;5.38;4.55;;;8.50;79.40;;;;;;5047027;28;20063;-50
2023/01/03 07:16:41;;;;;;;6.32;5.05;;;8.50;79.30;;;;;;5048667;28;20143;-53
2023/01/03 07:19:13;;;;;;;4.03;3.63;;;8.50;79.30;;;;;;5047541;28;20045;-56
2023/01/03 07:21:40;;;;;;;8.15;3.63;;;8.50;79.20;;;;;;5045244;28;20044;-52
2023/01/03 07:24:09;;;;;;;9.02;4.15;;;8.50;79.10;;;;;;5045956;28;20044;-49
2023/01/03 07:26:36;;;;;;;5.28;4.50;;;8.40;79.00;;;;;;5050763;28;20029;-51
2023/01/03 07:29:12;;;;;;;7.90;4.97;;;8.40;79.00;;;;;;5047380;28;20029;-53
2023/01/03 07:31:49;;;;;;;6.32;4.45;;;8.40;79.20;;;;;;5041633;28;20049;-52
2023/01/03 07:34:15;;;;;;;6.20;4.32;;;8.30;79.20;;;;;;5049013;28;20047;-53
2023/01/03 07:36:42;;;;;;;5.38;4.03;;;8.30;79.40;;;;;;5049899;28;20106;-53
2023/01/03 07:39:09;;;;;;;7.95;4.70;;;8.30;79.50;;;;;;5046263;28;20048;-50
2023/01/03 07:44:25;;;;;;;6.10;4.25;;;8.30;80.10;;;;;;5021120;28;20115;-50
2023/01/03 07:46:52;;;;;;;6.97;4.63;;;8.30;80.30;;;;;;5048881;28;20056;-51
2023/01/03 07:49:18;;;;;;;6.18;4.55;;;8.30;80.30;;;;;;5044502;28;20736;-52
2023/01/03 07:51:45;;;;;;;5.50;3.97;;;8.30;80.20;;;;;;5050441;28;20136;-49
2023/01/03 07:54:12;;;;;;;5.97;4.13;;;8.30;80.10;;;;;;5032573;28;20047;-49
2023/01/03 07:56:38;;;;;;;5.90;3.90;;;8.30;80.00;;;;;;5048524;28;20052;-49
2023/01/03 07:59:05;;;;;;;4.15;3.72;;;8.40;80.00;;;;;;5044504;28;20099;-49
2023/01/03 08:01:32;;;;;;;4.15;3.65;;;8.30;79.90;;;;;;5048235;28;20425;-52
2023/01/03 08:03:59;;;;;;;4.18;3.72;;;8.40;80.10;;;;;;5048371;28;20497;-50
2023/01/03 08:06:26;;;;;;;5.15;4.20;;;8.40;80.10;;;;;;5048683;28;20528;-48
2023/01/03 08:14:24;;;;;;;4.70;3.50;;;8.40;80.70;;;;;;5047450;28;20041;-50
2023/01/03 08:16:53;;;;;;;4.28;3.63;;;8.40;80.90;;;;;;5053268;28;20071;-51
2023/01/03 08:19:20;;;;;;;5.03;3.38;;;8.50;81.20;;;;;;5049036;28;20110;-50
2023/01/03 08:21:47;;;;;;;4.40;3.75;;;8.50;81.20;;;;;;5051701;28;20072;-51
2023/01/03 08:24:14;;;;;;;5.82;3.20;;;8.50;81.20;;;;;;5045245;28;20048;-53
2023/01/03 08:26:40;;;;;;;6.97;3.60;;;8.60;81.10;;;;;;5044225;28;20054;-49
2023/01/03 08:29:07;;;;;;;5.68;3.88;;;8.60;81.10;;;;;;5046155;28;20047;-50
2023/01/03 08:31:41;;;;;;;6.47;3.55;;;8.70;81.20;;;;;;5045620;28;20559;-51
2023/01/03 08:34:11;;;;;;;4.03;3.60;;;8.70;81.40;;;;;;5047629;28;20044;-48
2023/01/03 08:36:50;;;;;;;6.38;4.22;;;8.80;81.70;;;;;;5046807;28;20071;-51
2023/01/03 08:39:21;;;;;;;5.88;3.97;;;8.90;81.80;;;;;;5047318;28;20574;-52
2023/01/03 08:41:53;;;;;;;3.92;3.60;;;8.90;81.80;;;;;;5046570;28;20063;-52
2023/01/03 08:44:20;;;;;;;;;;;9.00;81.90;;;;;;5044707;28;20041;-53
2023/01/03 08:46:51;;;;;;;4.38;3.33;;;9.10;82.50;;;;;;5045065;28;19928;-52
2023/01/03 08:49:18;;;;;;;4.50;3.38;;;9.10;81.50;;;;;;5034718;28;20083;-53
2023/01/03 08:51:45;;;;;;;5.40;3.38;;;9.20;81.60;;;;;;5053156;28;20508;-53
2023/01/03 08:54:14;;;;;;;4.43;3.28;;;9.30;81.60;;;;;;5051311;28;20124;-50
2023/01/03 08:56:41;;;;;;;4.65;3.00;;;9.30;81.60;;;;;;5050332;28;20049;-51
2023/01/03 08:59:08;;;;;;;6.60;3.20;;;9.40;81.70;;;;;;5047532;28;20077;-52
2023/01/03 09:01:34;;;;;;;4.72;3.00;;;9.40;81.60;;;;;;5053180;28;20124;-48
2023/01/03 09:04:01;;;;;;;5.40;3.10;;;9.40;81.60;;;;;;5052067;28;20123;-47
2023/01/03 09:06:28;;;;;;;4.60;3.00;;;9.50;81.60;;;;;;5049054;28;20033;-51
2023/01/03 09:08:55;;;;;;;5.78;3.45;;;9.60;81.60;;;;;;5052225;28;20052;-49
2023/01/03 09:11:21;;;;;;;4.30;2.97;;;9.60;81.40;;;;;;5052721;28;20037;-53
2023/01/03 09:13:48;;;;;;;4.72;3.10;;;9.70;81.10;;;;;;5046025;28;20045;-49
2023/01/03 09:16:15;;;;;;;4.45;3.17;;;9.70;81.10;;;;;;5053056;28;20041;-51
2023/01/03 09:18:42;;;;;;;3.55;2.65;;;9.80;81.00;;;;;;5052088;28;20047;-49
2023/01/03 09:21:09;;;;;;;5.07;3.33;;;9.80;80.90;;;;;;5052558;28;20400;-52
2023/01/03 09:23:36;;;;;;;5.43;2.97;;;9.80;80.80;;;;;;5043032;28;20048;-53
2023/01/03 09:26:04;;;;;;;3.67;3.13;;;9.80;80.80;;;;;;5051535;28;20124;-49
2023/01/03 09:28:30;;;;;;;5.88;3.60;;;9.90;81.00;;;;;;5052299;28;20485;-53
2023/01/03 09:30:57;;;;;;;4.50;3.25;;;9.90;81.00;;;;;;5052300;28;20467;-49
2023/01/03 09:33:24;;;;;;;4.63;3.13;;;10.00;81.10;;;;;;5048676;28;20087;-49
2023/01/03 09:35:53;;;;;;;3.92;3.22;;;10.00;80.90;;;;;;5052779;28;20570;-50
2023/01/03 09:38:21;;;;;;;5.05;3.55;;;10.00;80.80;;;;;;5051849;28;20059;-50
2023/01/03 09:41:05;;;;;;;4.68;3.45;;;10.10;80.90;;;;;;5050042;28;20052;-49
2023/01/03 09:43:45;;;;;;;3.75;2.63;;;10.10;81.00;;;;;;5041635;28;20666;-52
2023/01/03 09:46:31;;;;;;;6.93;4.85;;;10.20;81.20;;;;;;5044712;28;20124;-52
2023/01/03 09:49:00;;;;;;;8.43;4.28;;;10.30;81.50;;;;;;5051219;28;20056;-51
2023/01/03 10:03:42;;;;;;;3.67;3.03;;;10.60;81.00;;;;;;5046304;28;20417;-51
2023/01/03 10:06:44;;;;;;;5.40;4.28;;;10.70;80.70;;;;;;5052278;28;20037;-53
2023/01/03 10:09:40;;;;;;;5.38;3.80;;;10.80;80.60;;;;;;5050394;28;20072;-52
2023/01/03 10:12:22;;;;;;;4.15;3.08;;;10.80;80.20;;;;;;5031560;28;20053;-51
2023/01/03 10:15:20;;;;;;;2.97;2.55;;;10.90;80.00;;;;;;5048284;28;20045;-53
2023/01/03 10:18:22;;;;;;;5.13;2.97;;;10.90;79.90;;;;;;5051248;28;20072;-53
2023/01/03 10:21:05;;;;;;;4.80;2.25;;;11.00;79.80;;;;;;5042477;28;20083;-51
2023/01/03 10:23:34;;;;;;;2.40;1.92;;;11.00;79.70;;;;;;5050467;28;20123;-49
2023/01/03 10:26:10;;;;;;;3.05;2.28;;;11.10;79.70;;;;;;5051475;28;20094;-53
2023/01/03 10:28:40;;;;;;;3.35;2.05;;;11.10;79.60;;;;;;5043883;28;20654;-50
2023/01/03 10:31:17;;;;;;;3.67;2.00;;;11.10;79.50;;;;;;5050187;28;20048;-53
2023/01/03 10:33:46;;;;;;;3.00;2.42;;;11.10;79.30;;;;;;5031675;28;20147;-53
2023/01/03 10:36:15;;;;;;;2.90;2.42;;;11.20;79.20;;;;;;5050066;28;20140;-52
2023/01/03 10:38:43;;;;;;;2.70;2.10;;;11.20;79.20;;;;;;5040470;28;20057;-53
2023/01/03 10:41:43;;;;;;;5.72;2.65;;;11.20;79.20;;;;;;5041548;28;20041;-50
2023/01/03 10:44:26;;;;;;;3.08;2.08;;;11.20;78.80;;;;;;5049701;28;20563;-53
2023/01/03 10:46:55;;;;;;;3.53;2.30;;;11.30;79.20;;;;;;5046977;28;20091;-53
2023/01/03 10:49:25;;;;;;;4.22;1.98;;;11.30;79.10;;;;;;5046473;28;20590;-53
2023/01/03 10:52:03;;;;;;;2.00;1.90;;;11.30;79.00;;;;;;5050216;28;20041;-53
2023/01/03 10:54:42;;;;;;;2.38;2.00;;;11.40;78.70;;;;;;5046299;28;20536;-49
2023/01/03 10:57:32;;;;;;;4.28;1.80;;;11.40;78.80;;;;;;5040565;28;20045;-52
2023/01/03 10:59:59;;;;;;;3.80;1.67;;;11.50;79.10;;;;;;5031829;28;20115;-53
2023/01/03 11:02:26;;;;;;;2.22;1.80;;;11.50;78.90;;;;;;5048632;28;20040;-53
2023/01/03 11:05:12;;;;;;;3.70;2.35;;;11.60;78.90;;;;;;5048992;28;20437;-53
2023/01/03 11:07:43;;;;;;;5.47;1.98;;;11.60;78.80;;;;;;5046175;28;20073;-52
2023/01/03 11:10:17;;;;;;;4.70;1.88;;;11.70;78.60;;;;;;5048509;28;20059;-53
2023/01/03 11:12:48;;;;;;;3.55;1.85;;;11.70;78.10;;;;;;5048602;28;20096;-49
2023/01/03 11:15:36;;;;;;;3.13;2.38;;;11.80;78.20;;;;;;5044936;28;20047;-53
2023/01/03 11:18:15;;;;;;;5.07;2.47;;;11.90;77.60;;;;;;5047569;28;20044;-50
2023/01/03 11:20:51;;;;;;;3.00;2.20;;;11.90;77.60;;;;;;5048933;28;20592;-52
2023/01/03 11:23:34;;;;;;;2.35;2.00;;;12.00;77.90;;;;;;5047877;28;20401;-52
2023/01/03 11:26:34;;;;;;;2.70;1.45;;;12.00;77.80;;;;;;5045979;28;20116;-53
2023/01/03 11:29:35;;;;;;;4.05;1.60;;;12.10;77.30;;;;;;5046847;28;20548;-53
2023/01/03 11:32:12;;;;;;;2.40;1.00;;;12.20;76.60;;;;;;5050253;28;20065;-52
2023/01/03 11:35:04;;;;;;;3.00;1.98;;;12.10;76.40;;;;;;5044071;28;20044;-53
2023/01/03 11:38:04;;;;;;;2.17;1.50;;;12.20;76.00;;;;;;5040452;28;20040;-51
2023/01/03 11:41:08;;;;;;;2.58;1.30;;;12.20;76.40;;;;;;5042891;28;20037;-50
2023/01/03 11:44:06;;;;;;;2.63;1.23;;;12.30;76.10;;;;;;5042299;28;20496;-53
2023/01/03 11:46:35;;;;;;;4.05;1.75;;;12.30;75.30;;;;;;5013151;28;20055;-53
2023/01/03 11:49:27;;;;;;;3.50;1.67;;;12.30;75.90;;;;;;5044868;28;20030;-52
2023/01/03 11:52:15;;;;;;;1.40;1.30;;;12.30;75.10;;;;;;5049615;28;20544;-52
2023/01/03 11:55:16;;;;;;;3.38;1.65;;;12.40;74.90;;;;;;5041160;28;20116;-53
2023/01/03 11:57:55;;;;;;;3.30;1.48;;;12.40;75.20;;;;;;5045171;28;20402;-51
2023/01/03 12:01:08;;;;;;;3.10;1.90;;;12.40;75.80;;;;;;5049239;28;20523;-52
2023/01/03 12:04:12;;;;;;;2.65;1.60;;;12.50;75.40;;;;;;5044872;28;20073;-51
2023/01/03 12:06:53;;;;;;;6.63;2.03;;;12.50;75.70;;;;;;5050121;22;20050;-50
2023/01/03 12:10:16;;;;;;;4.20;1.73;;;12.60;75.30;;;;;;5007599;28;20063;-52
2023/01/03 12:13:01;;;;;;;5.85;1.70;;;12.70;75.00;;;;;;5005597;28;20046;-52
2023/01/03 12:15:48;;;;;;;2.80;1.95;;;12.70;75.40;;;;;;5020490;28;20498;-52
2023/01/03 12:18:43;;;;;;;3.67;1.85;;;12.70;74.60;;;;;;4989962;28;20081;-51
2023/01/03 12:21:19;;;;;;;3.25;2.03;;;12.70;74.20;;;;;;4989788;28;20042;-50
2023/01/03 12:24:27;;;;;;;3.05;1.40;;;12.70;73.80;;;;;;4987589;28;20578;-49
2023/01/03 12:27:12;;;;;;;4.55;1.42;;;12.70;74.20;;;;;;4976200;28;20054;-50
2023/01/03 12:30:08;;;;;;;2.15;1.50;;;12.60;73.40;;;;;;4990033;28;20035;-49
2023/01/03 12:32:54;;;;;;;3.10;1.95;;;12.60;73.50;;;;;;4975837;28;20061;-53
2023/01/03 12:35:41;;;;;;;3.58;1.63;;;12.60;73.50;;;;;;4984217;28;20639;-52
2023/01/03 12:38:09;;;;;;;2.13;1.45;;;12.60;74.20;;;;;;4988362;28;20034;-52
2023/01/03 12:40:51;;;;;;;6.13;1.30;;;12.60;73.80;;;;;;4984042;28;20062;-52
2023/01/03 12:43:46;;;;;;;1.30;0.83;;;12.70;72.90;;;;;;4982568;28;20114;-49
2023/01/03 12:46:21;;;;;;;2.30;0.60;;;12.70;71.40;;;;;;4986868;28;20341;-52
2023/01/03 12:49:00;;;;;;;2.40;0.65;;;12.70;72.20;;;;;;4989281;28;20458;-52
2023/01/03 12:51:28;;;;;;;1.67;0.75;;;12.70;71.80;;;;;;4986122;28;20042;-53
2023/01/03 12:54:13;;;;;;;1.13;0.30;;;12.70;71.30;;;;;;4989667;28;20423;-53
2023/01/03 12:57:05;;;;;;;1.00;0.60;;;12.80;69.60;;;;;;4990878;28;20054;-51
2023/01/03 12:59:53;;;;;;;1.85;0.70;;;12.80;69.40;;;;;;4989660;28;20121;-51
2023/01/03 13:02:47;;;;;;;3.25;0.60;;;12.80;69.60;;;;;;4993642;28;20062;-52
2023/01/03 13:05:36;;;;;;;1.05;0.40;;;12.80;70.20;;;;;;4993801;28;20105;-53
2023/01/03 13:08:37;;;;;;;1.08;0.50;;;12.80;69.60;;;;;;4990299;28;20046;-50
2023/01/03 13:11:12;;;;;;;1.90;0.65;;;12.90;68.90;;;;;;4985566;28;20053;-54
2023/01/03 13:13:55;;;;;;;1.17;0.88;;;12.90;69.40;;;;;;4981725;28;20046;-53
2023/01/03 13:16:40;;;;;;;0.65;0.35;;;12.90;68.60;;;;;;4987418;28;20046;-52
2023/01/03 13:19:22;;;;;;;1.40;0.93;;;12.90;68.10;;;;;;4987109;28;20046;-50
2023/01/03 13:21:49;;;;;;;0.50;0.50;;;12.80;68.10;;;;;;4993718;28;20048;-51
2023/01/03 13:24:39;;;;;;;0.80;0.50;;;12.80;68.80;;;;;;4991525;28;20137;-51
2023/01/03 13:27:34;;;;;;;0.88;0.50;;;12.70;67.40;;;;;;4985921;28;20558;-49
2023/01/03 13:30:02;;;;;;;2.05;1.13;;;12.70;67.30;;;;;;4987758;28;20422;-51
2023/01/03 13:32:29;;;;;;;2.25;0.68;;;12.60;68.80;;;;;;4981690;28;20564;-49
2023/01/03 13:35:04;;;;;;;3.88;0.70;;;12.60;69.00;;;;;;4993353;28;20053;-54
2023/01/03 13:37:49;;;;;;;1.98;0.60;;;12.60;69.10;;;;;;4985541;28;20042;-50
2023/01/03 13:40:24;;;;;;;0.80;0.60;;;12.60;68.50;;;;;;4992986;28;20519;-52
2023/01/03 13:43:27;;;;;;;1.17;1.08;;;12.70;68.90;;;;;;4992638;28;20046;-51
2023/01/03 13:45:55;;;;;;;;;;;12.70;68.90;;;;;;4991120;28;20053;-53
2023/01/03 13:48:33;;;;;;;5.15;0.95;;;12.70;69.00;;;;;;4992541;28;19992;-50
2023/01/03 13:51:38;;;;;;;1.00;0.90;;;12.70;68.90;;;;;;4993254;28;20055;-53
2023/01/03 13:54:10;;;;;;;1.30;0.80;;;12.70;68.60;;;;;;4969717;28;20478;-50
2023/01/03 13:56:42;;;;;;;;;;;12.70;68.80;;;;;;4991583;28;20066;-49
2023/01/03 13:59:24;;;;;;;1.10;0.60;;;12.70;69.40;;;;;;4992020;28;19972;-51
2023/01/03 14:02:14;;;;;;;1.97;0.67;;;12.70;69.10;;;;;;4984798;28;20407;-50
2023/01/03 14:05:02;;;;;;;2.10;1.08;;;12.80;69.30;;;;;;4986710;28;20066;-50
2023/01/03 14:07:44;;;;;;;0.80;0.75;;;12.70;68.90;;;;;;4988196;28;20038;-50
2023/01/03 14:10:48;;;;;;;1.13;0.70;;;12.70;69.60;;;;;;4990640;28;20043;-49
2023/01/03 14:13:44;;;;;;;1.30;0.90;;;12.70;69.00;;;;;;4981516;28;20055;-49
2023/01/03 14:16:16;;;;;;;3.70;1.27;;;12.70;69.60;;;;;;4988157;28;20518;-51
2023/01/03 14:19:10;;;;;;;1.77;0.95;;;12.70;69.40;;;;;;4988893;28;20046;-49
2023/01/03 14:21:59;;;;;;;1.20;0.80;;;12.70;68.60;;;;;;4984853;28;20085;-52
2023/01/03 14:24:56;;;;;;;2.22;1.25;;;12.70;68.80;;;;;;4994905;28;20068;-48
2023/01/03 14:27:31;;;;;;;3.15;1.38;;;12.60;68.30;;;;;;4991847;28;20064;-52
2023/01/03 14:30:00;;;;;;;4.13;2.25;;;12.60;69.50;;;;;;4992098;28;20499;-49
2023/01/03 14:32:33;;;;;;;4.45;1.50;;;12.50;68.70;;;;;;4992915;28;20113;-50
2023/01/03 14:35:02;;;;;;;2.30;1.50;;;12.50;68.60;;;;;;4990462;28;20039;-48
2023/01/03 14:37:31;;;;;;;2.20;1.00;;;12.50;68.80;;;;;;4988735;28;20045;-47
2023/01/03 14:40:04;;;;;;;1.65;0.82;;;12.40;69.20;;;;;;4991973;28;20046;-53